Time;durP1;ratioP1;P1;durP2;ratioP2;P2;SDS_P1;SDS_P2;PMS_P1;PMS_P2;Temp;Humidity;BMP_temperature;BMP_pressure;BME280_temperature;BME280_humidity;BME280_pressure;Samples;Min_cycle;Max_cycle;Signal;HPM_P1;HPM_P2
2023/10/07 00:01:50;;;;;;;1.17;1.08;;;;;;;11.10;76.67;100276.59;5115490;28;20444;-69
2023/10/07 00:04:19;;;;;;;0.98;0.93;;;;;;;10.99;76.74;100294.38;5115397;28;20047;-68
2023/10/07 00:06:49;;;;;;;1.10;0.80;;;;;;;11.07;76.68;100287.63;5115093;28;20494;-66
2023/10/07 00:09:22;;;;;;;;;;;;;;;11.07;76.58;100290.19;5115470;28;20044;-66
2023/10/07 00:11:51;;;;;;;1.67;1.50;;;;;;;11.09;76.41;100290.19;5114819;28;20381;-67
2023/10/07 00:14:28;;;;;;;0.50;0.50;;;;;;;11.05;76.31;100283.34;5114795;28;20043;-68
2023/10/07 00:17:05;;;;;;;1.60;1.50;;;;;;;11.05;76.46;100285.91;5115243;28;20138;-67
2023/10/07 00:19:34;;;;;;;0.40;0.40;;;;;;;11.00;76.59;100287.56;5114861;28;20047;-66
2023/10/07 00:22:08;;;;;;;0.55;0.55;;;;;;;11.06;76.60;100279.97;5115046;28;20043;-68
2023/10/07 00:24:42;;;;;;;1.70;1.60;;;;;;;11.07;76.43;100276.56;5113661;28;20047;-67
2023/10/07 00:27:26;;;;;;;0.57;0.57;;;;;;;11.03;76.55;100279.94;5114676;28;20059;-66
2023/10/07 00:29:59;;;;;;;0.98;0.93;;;;;;;10.90;76.26;100290.91;5114862;28;20440;-67
2023/10/07 00:32:32;;;;;;;1.27;1.17;;;;;;;10.87;76.17;100289.16;5113421;28;20043;-66
2023/10/07 00:35:01;;;;;;;0.50;0.50;;;;;;;10.93;76.85;100283.25;5114871;28;20053;-66
2023/10/07 00:37:33;;;;;;;0.40;0.40;;;;;;;10.94;76.42;100279.88;5113357;28;20096;-65
2023/10/07 00:40:14;;;;;;;0.70;0.70;;;;;;;10.88;76.46;100275.56;5113353;28;20086;-69
2023/10/07 00:42:44;;;;;;;0.65;0.63;;;;;;;10.74;76.42;100287.38;5113250;28;20097;-67
2023/10/07 00:45:16;;;;;;;0.68;0.68;;;;;;;10.72;76.97;100278.84;5114431;28;20460;-67
2023/10/07 00:47:49;;;;;;;0.65;0.65;;;;;;;10.81;76.44;100285.72;5096374;28;20158;-68
2023/10/07 00:50:20;;;;;;;0.63;0.63;;;;;;;10.88;76.61;100285.78;5096227;28;20046;-66
2023/10/07 00:52:57;;;;;;;0.35;0.35;;;;;;;10.92;76.45;100291.78;5114593;28;20050;-65
2023/10/07 00:55:34;;;;;;;0.77;0.77;;;;;;;10.95;76.25;100279.03;5114278;28;20122;-67
2023/10/07 00:58:19;;;;;;;0.35;0.35;;;;;;;10.92;76.11;100276.47;5114530;28;20074;-67
2023/10/07 01:00:50;;;;;;;0.95;0.80;;;;;;;10.91;76.16;100269.63;5112971;28;20078;-68
2023/10/07 01:03:32;;;;;;;0.35;0.35;;;;;;;10.93;76.22;100267.94;5114110;28;20048;-67
2023/10/07 01:08:44;;;;;;;2.00;1.67;;;;;;;10.86;75.81;100266.19;5114339;28;20039;-67
2023/10/07 01:11:23;;;;;;;0.50;0.50;;;;;;;10.54;75.92;100266.78;5112836;28;20388;-66
2023/10/07 01:13:56;;;;;;;0.88;0.85;;;;;;;10.27;76.43;100261.41;5114013;28;20104;-66
2023/10/07 01:16:32;;;;;;;0.50;0.50;;;;;;;10.07;76.70;100266.31;5113110;28;20093;-66
2023/10/07 01:19:18;;;;;;;0.68;0.68;;;;;;;10.04;77.33;100270.50;5112623;28;20043;-66
2023/10/07 01:21:54;;;;;;;0.30;0.30;;;;;;;9.94;77.22;100268.69;5112758;28;20399;-67
2023/10/07 01:24:44;;;;;;;1.45;1.15;;;;;;;9.95;77.59;100265.31;5115075;28;20043;-66
2023/10/07 01:27:29;;;;;;;;;;;;;;;9.81;77.91;100252.38;5117393;28;20491;-67
2023/10/07 01:30:06;;;;;;;0.65;0.65;;;;;;;9.79;78.11;100250.69;5118247;28;19927;-67
2023/10/07 01:32:48;;;;;;;0.65;0.65;;;;;;;9.70;78.48;100241.22;5118296;28;20368;-67
2023/10/07 01:35:25;;;;;;;2.05;0.98;;;;;;;9.69;79.26;100239.53;5118352;28;20048;-67
2023/10/07 01:37:59;;;;;;;5.25;0.85;;;;;;;9.69;78.60;100238.66;5117074;28;20071;-67
2023/10/07 01:40:41;;;;;;;0.77;0.57;;;;;;;9.61;78.47;100237.72;5117977;28;20047;-67
2023/10/07 01:43:10;;;;;;;0.73;0.73;;;;;;;9.53;79.31;100231.66;5118213;28;20089;-67
2023/10/07 01:45:39;;;;;;;2.03;1.02;;;;;;;9.56;79.24;100222.38;5117953;28;20050;-65
2023/10/07 01:48:08;;;;;;;1.02;0.80;;;;;;;9.62;79.70;100221.59;5118004;28;20639;-67
2023/10/07 01:50:39;;;;;;;0.50;0.50;;;;;;;9.74;79.47;100219.19;5117710;28;20040;-67
2023/10/07 01:53:11;;;;;;;0.98;0.98;;;;;;;9.66;79.70;100228.44;5116579;28;20100;-67
2023/10/07 01:55:43;;;;;;;1.65;0.85;;;;;;;9.66;79.25;100230.97;5117631;28;20482;-66
2023/10/07 01:58:13;;;;;;;1.83;1.13;;;;;;;9.70;79.69;100237.81;5116737;28;20367;-66
2023/10/07 02:00:45;;;;;;;0.77;0.77;;;;;;;9.74;79.04;100230.22;5116363;28;20059;-66
2023/10/07 02:03:16;;;;;;;1.45;1.35;;;;;;;9.69;79.38;100220.84;5116664;28;20048;-67
2023/10/07 02:05:48;;;;;;;2.33;1.30;;;;;;;9.71;79.61;100224.25;5116346;28;20404;-67
2023/10/07 02:08:20;;;;;;;0.98;0.90;;;;;;;9.57;79.27;100213.03;5117475;28;20078;-67
2023/10/07 02:10:56;;;;;;;0.45;0.45;;;;;;;9.64;79.20;100217.38;5117432;27;20176;-67
2023/10/07 02:13:29;;;;;;;0.70;0.70;;;;;;;9.51;79.22;100215.50;5116205;28;20059;-66
2023/10/07 02:15:57;;;;;;;0.80;0.80;;;;;;;9.41;79.32;100214.53;5116418;28;20047;-67
2023/10/07 02:18:27;;;;;;;1.33;1.23;;;;;;;9.33;79.97;100206.78;5117155;28;20043;-65
2023/10/07 02:21:07;;;;;;;1.45;1.35;;;;;;;9.28;80.34;100208.44;5116046;28;20441;-67
2023/10/07 02:23:40;;;;;;;0.50;0.50;;;;;;;9.25;80.04;100198.22;5117449;28;20096;-66
2023/10/07 02:26:17;;;;;;;1.23;1.13;;;;;;;9.22;80.15;100194.75;5117427;28;20058;-65
2023/10/07 02:28:50;;;;;;;0.60;0.60;;;;;;;9.34;80.62;100197.47;5117370;28;20047;-67
2023/10/07 02:31:21;;;;;;;1.50;1.35;;;;;;;9.36;80.51;100190.69;5116819;28;20085;-66
2023/10/07 02:33:53;;;;;;;1.95;1.42;;;;;;;9.27;80.00;100183.81;5116888;28;20152;-66
2023/10/07 02:36:31;;;;;;;0.73;0.65;;;;;;;9.20;80.51;100184.56;5115250;28;20073;-66
2023/10/07 02:39:05;;;;;;;1.00;1.00;;;;;;;9.10;80.34;100182.72;5115683;28;20526;-66
2023/10/07 02:41:36;;;;;;;1.40;1.17;;;;;;;9.07;80.67;100190.31;5116533;28;20058;-67
2023/10/07 02:44:09;;;;;;;3.90;0.85;;;;;;;9.00;80.24;100191.06;5117164;28;20043;-65
2023/10/07 02:46:39;;;;;;;0.52;0.52;;;;;;;8.89;80.25;100191.75;5115795;28;20092;-67
2023/10/07 02:49:11;;;;;;;1.02;1.00;;;;;;;8.88;80.84;100185.81;5115655;28;20042;-66
2023/10/07 02:51:49;;;;;;;1.77;1.08;;;;;;;8.90;80.83;100180.75;5115209;28;20052;-66
2023/10/07 02:54:20;;;;;;;4.13;1.15;;;;;;;8.92;80.77;100182.50;5116487;28;20058;-66
2023/10/07 02:56:56;;;;;;;1.30;1.20;;;;;;;9.01;80.62;100182.63;5098528;28;20108;-66
2023/10/07 02:59:28;;;;;;;0.32;0.32;;;;;;;9.12;80.68;100183.59;5115220;28;20459;-67
2023/10/07 03:04:41;;;;;;;0.50;0.50;;;;;;;9.33;80.76;100170.28;5115770;28;20048;-66
2023/10/07 03:07:17;;;;;;;0.50;0.50;;;;;;;9.37;80.41;100177.13;5115149;28;20078;-66
2023/10/07 03:09:53;;;;;;;1.40;1.25;;;;;;;9.45;80.57;100181.47;5116250;28;20075;-66
2023/10/07 03:12:28;;;;;;;0.77;0.77;;;;;;;9.53;80.14;100184.09;5116043;28;20051;-66
2023/10/07 03:14:58;;;;;;;3.17;1.95;;;;;;;9.54;80.23;100187.50;5116404;28;20545;-65
2023/10/07 03:17:39;;;;;;;0.57;0.57;;;;;;;9.59;80.01;100183.34;5116141;28;20441;-66
2023/10/07 03:26:05;;;;;;;0.70;0.70;;;;;;;9.66;78.71;100196.16;5132155;27;20045;-66
2023/10/07 03:28:37;;;;;;;0.40;0.40;;;;;;;9.70;79.07;100191.94;5131838;28;20061;-66
2023/10/07 03:31:10;;;;;;;0.65;0.60;;;;;;;9.75;78.33;100190.28;5132218;27;20116;-67
2023/10/07 03:33:48;;;;;;;0.68;0.68;;;;;;;9.73;78.33;100181.78;5132098;28;20047;-67
2023/10/07 03:39:16;;;;;;;0.40;0.40;;;;;;;9.58;78.70;100181.59;5131804;27;20047;-66
2023/10/07 03:41:48;;;;;;;0.50;0.50;;;;;;;9.47;78.87;100188.28;5131666;28;20118;-66
2023/10/07 03:44:18;;;;;;;2.22;0.70;;;;;;;9.43;79.22;100187.38;5131860;27;20126;-67
2023/10/07 03:46:49;;;;;;;0.80;0.80;;;;;;;9.44;79.24;100182.31;5131577;27;20047;-67
2023/10/07 03:49:21;;;;;;;1.05;1.00;;;;;;;9.55;79.83;100173.94;5131595;27;20044;-66
2023/10/07 03:52:03;;;;;;;0.70;0.60;;;;;;;9.72;79.81;100174.97;5131825;28;20392;-66
2023/10/07 03:54:34;;;;;;;0.77;0.70;;;;;;;9.80;79.66;100169.13;5130248;28;20489;-67
2023/10/07 03:57:04;;;;;;;1.27;1.17;;;;;;;9.70;79.80;100169.00;5131468;28;20097;-67
2023/10/07 03:59:36;;;;;;;0.50;0.50;;;;;;;9.62;79.76;100170.63;5131717;27;20047;-67
2023/10/07 04:02:29;;;;;;;0.95;0.88;;;;;;;9.50;80.10;100167.94;5131158;28;20081;-67
2023/10/07 04:05:00;;;;;;;0.50;0.50;;;;;;;9.53;80.62;100162.84;5131177;27;20052;-66
2023/10/07 04:07:30;;;;;;;0.57;0.57;;;;;;;9.51;80.86;100164.53;5131801;27;20057;-67
2023/10/07 04:10:15;;;;;;;0.80;0.80;;;;;;;9.59;81.08;100155.31;5131458;27;20506;-66
2023/10/07 04:12:47;;;;;;;0.50;0.50;;;;;;;9.59;80.82;100162.94;5131901;28;20044;-66
2023/10/07 04:15:18;;;;;;;0.73;0.73;;;;;;;9.56;81.11;100150.16;5130950;27;20047;-66
2023/10/07 04:17:52;;;;;;;0.73;0.73;;;;;;;9.57;81.18;100159.53;5131695;27;20043;-66
2023/10/07 04:20:24;;;;;;;0.93;0.70;;;;;;;9.49;81.91;100167.09;5131509;27;20380;-66
2023/10/07 04:23:00;;;;;;;0.50;0.50;;;;;;;9.55;82.00;100161.22;5130752;27;20050;-67
2023/10/07 04:25:39;;;;;;;0.60;0.60;;;;;;;9.73;82.06;100159.72;5130795;28;20047;-66
2023/10/07 04:28:13;;;;;;;1.60;1.33;;;;;;;9.83;82.27;100153.88;5130812;27;20079;-66
2023/10/07 04:30:47;;;;;;;5.55;0.88;;;;;;;9.78;81.58;100157.19;5131084;27;20047;-67
2023/10/07 04:33:29;;;;;;;0.73;0.73;;;;;;;9.76;81.18;100151.25;5122262;28;20467;-66
2023/10/07 04:36:04;;;;;;;0.63;0.63;;;;;;;9.72;81.38;100144.38;5117236;27;20519;-67
2023/10/07 04:43:59;;;;;;;0.82;0.75;;;;;;;9.58;81.38;100146.78;5116751;28;20093;-66
2023/10/07 04:46:28;;;;;;;1.45;1.35;;;;;;;9.53;81.77;100147.56;5116616;28;20047;-66
2023/10/07 04:49:12;;;;;;;1.10;0.90;;;;;;;9.43;81.62;100150.03;5116762;28;20046;-65
2023/10/07 04:51:47;;;;;;;1.83;1.52;;;;;;;9.40;82.22;100152.56;5116914;27;20043;-65
2023/10/07 04:54:22;;;;;;;0.40;0.40;;;;;;;9.47;82.32;100152.63;5116689;28;20101;-65
2023/10/07 04:57:00;;;;;;;0.80;0.80;;;;;;;9.42;81.81;100150.03;5116455;28;20493;-66
2023/10/07 04:59:30;;;;;;;0.45;0.45;;;;;;;9.38;82.02;100156.75;5116600;28;20067;-68
2023/10/07 05:02:01;;;;;;;0.80;0.80;;;;;;;9.38;83.14;100164.41;5116370;28;20050;-67
2023/10/07 05:04:32;;;;;;;1.60;1.50;;;;;;;9.44;82.98;100172.13;5116761;28;20067;-66
2023/10/07 05:07:04;;;;;;;0.93;0.88;;;;;;;9.48;82.41;100169.63;5116354;28;20100;-66
2023/10/07 05:09:32;;;;;;;0.77;0.73;;;;;;;9.42;82.36;100166.16;5116281;28;20047;-66
2023/10/07 05:12:06;;;;;;;0.43;0.43;;;;;;;9.39;83.03;100170.34;5116192;28;20054;-66
2023/10/07 05:14:35;;;;;;;3.30;2.30;;;;;;;9.43;82.90;100162.75;5116225;28;20066;-66
2023/10/07 05:17:10;;;;;;;0.75;0.65;;;;;;;9.45;82.45;100171.28;5116270;28;20500;-65
2023/10/07 05:19:38;;;;;;;1.27;1.15;;;;;;;9.53;82.99;100168.81;5116139;28;20051;-66
2023/10/07 05:22:14;;;;;;;0.82;0.82;;;;;;;9.56;82.70;100162.91;5115274;28;20050;-67
2023/10/07 05:24:46;;;;;;;1.15;0.85;;;;;;;9.66;82.78;100170.69;5116081;28;20044;-65
2023/10/07 05:27:18;;;;;;;1.27;1.17;;;;;;;9.71;82.67;100173.28;5116173;28;20501;-66
2023/10/07 05:29:47;;;;;;;1.05;0.93;;;;;;;9.65;83.03;100173.19;5115873;28;20047;-67
2023/10/07 05:32:18;;;;;;;0.60;0.60;;;;;;;9.69;82.77;100174.94;5115492;28;20108;-66
2023/10/07 05:34:47;;;;;;;1.05;0.95;;;;;;;9.78;82.38;100175.03;5115858;28;20481;-66
2023/10/07 05:37:16;;;;;;;0.70;0.70;;;;;;;9.78;83.00;100185.25;5115720;28;20104;-65
2023/10/07 05:39:45;;;;;;;0.63;0.63;;;;;;;9.85;82.27;100180.22;5115503;28;20043;-65
2023/10/07 05:42:14;;;;;;;0.98;0.93;;;;;;;9.91;82.97;100184.53;5115888;28;20047;-65
2023/10/07 05:44:45;;;;;;;1.37;1.27;;;;;;;10.04;82.96;100188.91;5114929;28;20130;-67
2023/10/07 05:47:13;;;;;;;0.60;0.60;;;;;;;10.17;82.49;100189.91;5115575;28;20043;-67
2023/10/07 05:49:43;;;;;;;1.65;1.52;;;;;;;10.21;82.06;100187.41;5114695;28;20400;-65
2023/10/07 05:52:12;;;;;;;;;;;;;;;10.24;82.32;100189.97;5104678;28;20039;-65
2023/10/07 05:54:41;;;;;;;1.38;0.88;;;;;;;10.35;81.84;100195.16;5106012;28;19941;-66
2023/10/07 05:57:10;;;;;;;2.70;2.20;;;;;;;10.47;81.94;100196.13;5104582;28;20543;-65
2023/10/07 05:59:42;;;;;;;0.50;0.50;;;;;;;10.56;81.38;100185.97;5103430;28;20489;-67
2023/10/07 06:02:15;;;;;;;4.65;1.23;;;;;;;10.66;81.22;100197.97;5104459;28;20050;-65
2023/10/07 06:04:44;;;;;;;3.53;2.47;;;;;;;10.84;81.08;100204.03;5111993;28;20516;-68
2023/10/07 06:07:14;;;;;;;1.27;1.17;;;;;;;10.98;81.05;100194.78;5115425;28;20397;-65
2023/10/07 06:09:44;;;;;;;4.18;2.03;;;;;;;11.11;81.03;100197.38;5115308;28;20138;-65
2023/10/07 06:12:15;;;;;;;;;;;;;;;11.08;80.52;100191.44;5115467;28;20055;-65
2023/10/07 06:14:44;;;;;;;0.95;0.85;;;;;;;10.97;80.53;100187.94;5115279;28;19926;-65
2023/10/07 06:17:15;;;;;;;1.60;1.33;;;;;;;10.97;80.14;100185.38;5114955;28;20046;-67
2023/10/07 06:19:45;;;;;;;0.60;0.60;;;;;;;11.03;80.38;100193.09;5115165;28;20798;-65
2023/10/07 06:22:16;;;;;;;0.70;0.70;;;;;;;11.04;80.01;100194.78;5114587;28;20054;-67
2023/10/07 06:24:44;;;;;;;0.80;0.80;;;;;;;11.01;79.62;100184.56;5114798;28;20047;-67
2023/10/07 06:27:20;;;;;;;0.85;0.70;;;;;;;11.00;79.62;100198.19;5114709;28;20055;-66
2023/10/07 06:29:51;;;;;;;1.20;1.13;;;;;;;11.03;79.50;100198.19;5109246;28;20044;-69
2023/10/07 06:32:25;;;;;;;0.95;0.93;;;;;;;11.11;79.82;100202.50;5104560;28;20520;-67
2023/10/07 06:34:56;;;;;;;1.48;1.38;;;;;;;11.16;79.18;100205.06;5105906;28;20070;-67
2023/10/07 06:37:29;;;;;;;1.27;1.17;;;;;;;11.23;79.35;100206.81;5114931;28;20138;-67
2023/10/07 06:40:00;;;;;;;0.90;0.90;;;;;;;11.32;79.22;100206.88;5114512;28;20043;-67
2023/10/07 06:42:30;;;;;;;0.77;0.77;;;;;;;11.33;78.84;100206.00;5114527;28;20120;-65
2023/10/07 06:45:06;;;;;;;2.42;1.45;;;;;;;11.37;78.88;100210.31;5113562;28;20042;-67
2023/10/07 06:47:38;;;;;;;1.27;0.82;;;;;;;11.40;78.97;100205.19;5113145;28;20431;-68
2023/10/07 06:50:08;;;;;;;2.50;1.70;;;;;;;11.49;78.90;100207.81;5114504;28;20113;-67
2023/10/07 06:52:44;;;;;;;1.38;1.27;;;;;;;11.59;78.70;100206.97;5114534;28;20059;-66
2023/10/07 06:55:15;;;;;;;1.20;1.10;;;;;;;11.61;78.61;100204.44;5114309;28;20051;-67
2023/10/07 06:57:47;;;;;;;1.05;0.70;;;;;;;11.63;78.52;100198.47;5114116;28;20043;-67
2023/10/07 07:00:24;;;;;;;3.92;2.90;;;;;;;11.65;78.83;100207.00;5114806;28;20142;-67
2023/10/07 07:02:59;;;;;;;2.83;1.45;;;;;;;11.70;78.76;100210.47;5112761;28;20392;-66
2023/10/07 07:05:28;;;;;;;0.80;0.80;;;;;;;11.69;78.64;100195.09;5115010;28;20044;-67
2023/10/07 07:07:58;;;;;;;0.82;0.80;;;;;;;11.69;78.54;100195.97;5114056;28;20044;-67
2023/10/07 07:10:31;;;;;;;1.30;1.20;;;;;;;11.64;78.61;100197.63;5113997;28;20485;-66
2023/10/07 07:13:05;;;;;;;2.25;1.35;;;;;;;11.68;78.68;100190.84;5114135;28;20047;-66
2023/10/07 07:15:37;;;;;;;1.10;1.00;;;;;;;11.72;78.58;100190.88;5114308;28;20067;-66
2023/10/07 07:18:16;;;;;;;1.92;1.80;;;;;;;11.69;78.67;100188.28;5113054;28;20576;-66
2023/10/07 07:21:00;;;;;;;1.38;1.27;;;;;;;11.84;78.64;100188.34;5113719;28;20123;-65
2023/10/07 07:23:36;;;;;;;2.92;1.77;;;;;;;12.05;79.03;100190.94;5113853;28;20071;-66
2023/10/07 07:26:11;;;;;;;1.92;1.73;;;;;;;12.16;78.65;100187.53;5114049;28;20481;-66
2023/10/07 07:28:44;;;;;;;1.85;1.35;;;;;;;12.27;78.52;100198.63;5113784;28;20047;-67
2023/10/07 07:31:18;;;;;;;1.05;1.00;;;;;;;12.44;78.63;100202.06;5113973;28;20055;-67
2023/10/07 07:33:50;;;;;;;1.40;1.30;;;;;;;12.60;78.10;100196.94;5114187;28;20108;-66
2023/10/07 07:36:37;;;;;;;2.38;2.00;;;;;;;12.76;77.95;100195.22;5113938;28;20063;-66
2023/10/07 07:39:09;;;;;;;1.95;1.55;;;;;;;12.98;77.56;100196.03;5114179;28;20043;-66
2023/10/07 07:41:55;;;;;;;1.85;1.40;;;;;;;13.10;77.15;100207.13;5113851;28;20122;-66
2023/10/07 07:47:05;;;;;;;0.98;0.90;;;;;;;13.37;76.70;100212.16;5114048;28;20043;-65
2023/10/07 07:49:38;;;;;;;2.25;1.35;;;;;;;13.47;76.79;100207.00;5113745;28;20497;-65
2023/10/07 07:52:08;;;;;;;1.63;1.52;;;;;;;13.55;76.35;100202.72;5114065;28;20047;-66
2023/10/07 07:54:37;;;;;;;1.20;1.13;;;;;;;13.66;76.60;100200.94;5114190;28;20044;-67
2023/10/07 07:57:07;;;;;;;0.85;0.82;;;;;;;13.90;76.00;100203.38;5113641;28;20056;-66
2023/10/07 07:59:38;;;;;;;1.65;1.48;;;;;;;13.92;76.29;100201.66;5113651;28;20079;-67
2023/10/07 08:02:13;;;;;;;5.90;1.98;;;;;;;13.98;75.73;100196.50;5112453;28;20055;-66
2023/10/07 08:04:46;;;;;;;3.83;2.13;;;;;;;14.02;76.31;100188.75;5113465;28;20079;-68
2023/10/07 08:07:24;;;;;;;1.42;1.23;;;;;;;14.24;76.49;100192.03;5113528;28;20078;-66
2023/10/07 08:09:57;;;;;;;1.23;1.13;;;;;;;14.36;76.34;100193.69;5116501;28;20374;-65
2023/10/07 08:12:30;;;;;;;1.52;1.42;;;;;;;14.45;76.15;100189.31;5117615;28;20048;-68
2023/10/07 08:15:07;;;;;;;1.27;1.05;;;;;;;14.51;75.93;100186.72;5117428;28;20093;-66
2023/10/07 08:17:37;;;;;;;1.40;1.10;;;;;;;14.68;75.59;100187.38;5117566;28;20104;-66
2023/10/07 08:20:10;;;;;;;4.60;1.38;;;;;;;14.77;75.55;100171.91;5117520;28;20473;-66
2023/10/07 08:22:45;;;;;;;2.83;1.75;;;;;;;14.93;75.48;100169.16;5115783;28;20558;-68
2023/10/07 08:25:17;;;;;;;1.00;0.98;;;;;;;14.99;74.61;100172.53;5116157;28;20499;-66
2023/10/07 08:27:49;;;;;;;1.13;1.10;;;;;;;15.11;74.50;100174.13;5117446;28;20094;-67
2023/10/07 08:30:37;;;;;;;1.65;1.38;;;;;;;15.29;74.43;100163.59;5117351;28;20138;-67
2023/10/07 08:33:12;;;;;;;1.02;1.02;;;;;;;15.28;73.28;100169.63;5117000;28;20057;-68
2023/10/07 08:35:44;;;;;;;1.63;1.52;;;;;;;15.37;73.48;100159.22;5117238;28;20116;-67
2023/10/07 08:41:04;;;;;;;1.33;0.93;;;;;;;15.68;72.14;100155.41;5116861;28;20104;-67
2023/10/07 08:43:43;;;;;;;2.33;2.10;;;;;;;15.82;72.09;100158.66;5116697;28;20044;-65
2023/10/07 08:46:17;;;;;;;2.28;2.08;;;;;;;15.81;71.55;100161.25;5117253;28;20126;-66
2023/10/07 08:48:56;;;;;;;1.25;1.13;;;;;;;15.94;71.26;100155.03;5116953;28;20138;-69
2023/10/07 08:51:33;;;;;;;1.40;1.30;;;;;;;16.17;70.84;100157.28;5116586;28;20052;-66
2023/10/07 08:54:09;;;;;;;0.70;0.70;;;;;;;16.21;70.07;100156.34;5116968;28;20050;-70
2023/10/07 08:56:41;;;;;;;3.67;2.10;;;;;;;16.27;69.94;100151.13;5115349;28;20130;-68
2023/10/07 08:59:12;;;;;;;1.20;1.10;;;;;;;16.36;69.96;100144.09;5117110;28;20042;-66
2023/10/07 09:01:44;;;;;;;2.22;1.40;;;;;;;16.58;69.79;100142.03;5116490;27;20060;-69
2023/10/07 09:04:13;;;;;;;1.38;1.25;;;;;;;16.80;69.27;100137.28;5116557;27;20514;-68
2023/10/07 09:06:50;;;;;;;1.23;1.13;;;;;;;16.94;68.94;100138.72;5116592;28;20382;-71
2023/10/07 09:09:37;;;;;;;1.63;0.90;;;;;;;17.07;68.30;100136.78;5116270;28;20483;-68
2023/10/07 09:12:14;;;;;;;1.73;1.63;;;;;;;17.16;67.62;100132.28;5116312;28;20127;-68
2023/10/07 09:14:47;;;;;;;0.93;0.93;;;;;;;17.28;67.42;100126.88;5116488;28;20051;-69
2023/10/07 09:17:20;;;;;;;1.77;1.65;;;;;;;17.41;67.29;100118.00;5116130;28;20055;-68
2023/10/07 09:19:52;;;;;;;1.92;1.33;;;;;;;17.55;66.95;100114.28;5116020;28;20043;-67
2023/10/07 09:22:24;;;;;;;1.30;1.20;;;;;;;17.74;66.31;100105.25;5114339;28;20058;-68
2023/10/07 09:25:08;;;;;;;2.05;1.85;;;;;;;17.88;65.56;100104.06;5116016;28;20036;-68
2023/10/07 09:27:38;;;;;;;1.35;1.25;;;;;;;17.99;64.98;100098.63;5116198;28;20048;-67
2023/10/07 09:30:34;;;;;;;2.87;2.20;;;;;;;18.08;64.81;100091.50;5115931;28;20063;-66
2023/10/07 09:32:59;;;;;;;1.02;0.85;;;;;;;18.16;64.74;100099.09;5115671;28;20048;-69
2023/10/07 09:35:31;;;;;;;0.65;0.65;;;;;;;18.35;64.84;100100.31;5116183;28;20438;-68
2023/10/07 09:38:08;;;;;;;1.45;1.30;;;;;;;18.57;63.80;100091.13;5115801;28;20119;-68
2023/10/07 09:43:20;;;;;;;2.03;0.85;;;;;;;18.92;61.45;100085.00;5107381;28;20048;-69
2023/10/07 09:45:52;;;;;;;3.90;1.60;;;;;;;19.07;60.72;100088.91;5115374;28;20036;-69
2023/10/07 09:48:29;;;;;;;0.70;0.70;;;;;;;19.17;60.38;100087.75;5115913;28;20104;-68
2023/10/07 09:50:59;;;;;;;1.20;1.10;;;;;;;19.34;60.02;100095.84;5114531;28;20100;-68
2023/10/07 09:53:43;;;;;;;0.70;0.70;;;;;;;19.54;59.62;100103.91;5115519;28;20549;-68
2023/10/07 09:56:22;;;;;;;3.00;1.83;;;;;;;19.67;58.74;100088.84;5115329;28;20123;-66
2023/10/07 09:59:00;;;;;;;;;;;;;;;19.82;58.22;100094.38;5115586;28;20093;-68
2023/10/07 10:01:39;;;;;;;1.38;0.90;;;;;;;19.82;57.94;100084.00;5114237;28;19986;-70
2023/10/07 10:04:32;;;;;;;0.90;0.90;;;;;;;19.80;57.66;100080.63;5115083;28;20039;-66
2023/10/07 10:07:18;;;;;;;2.42;1.38;;;;;;;19.92;57.38;100077.63;5115481;28;20139;-69
2023/10/07 10:10:05;;;;;;;1.40;1.00;;;;;;;20.06;57.55;100078.03;5115218;28;20122;-66
2023/10/07 10:12:56;;;;;;;3.22;0.85;;;;;;;20.16;57.04;100064.75;5115304;28;20132;-68
2023/10/07 10:21:15;;;;;;;1.55;0.90;;;;;;;20.51;56.87;100048.88;5108274;28;20040;-67
2023/10/07 10:23:45;;;;;;;1.20;1.10;;;;;;;20.64;56.63;100050.13;5114889;28;20048;-68
2023/10/07 10:26:23;;;;;;;1.65;1.50;;;;;;;20.67;56.57;100050.88;5114794;28;20465;-67
2023/10/07 10:29:07;;;;;;;0.60;0.60;;;;;;;20.84;56.57;100045.09;5114714;28;20501;-67
2023/10/07 10:31:37;;;;;;;1.52;1.15;;;;;;;20.85;55.97;100036.38;5114210;28;20079;-68
2023/10/07 10:34:08;;;;;;;1.05;0.95;;;;;;;20.93;55.60;100036.94;5114558;28;20058;-67
2023/10/07 10:36:41;;;;;;;0.80;0.80;;;;;;;21.11;55.52;100031.13;5114694;28;20044;-68
2023/10/07 10:39:25;;;;;;;1.92;1.70;;;;;;;21.12;54.99;100027.59;5114566;28;20054;-69
2023/10/07 10:42:13;;;;;;;0.60;0.60;;;;;;;21.26;54.44;100014.94;5114509;28;20055;-67
2023/10/07 10:44:48;;;;;;;0.90;0.90;;;;;;;21.40;54.05;100000.56;5114988;28;20071;-70
2023/10/07 10:47:21;;;;;;;0.85;0.85;;;;;;;21.74;53.89;100006.09;5114336;28;20040;-67
2023/10/07 10:49:54;;;;;;;1.00;0.90;;;;;;;21.94;53.82;99994.00;5114678;28;20104;-67
2023/10/07 10:52:24;;;;;;;1.45;1.35;;;;;;;22.03;52.90;99987.53;5114688;28;20455;-67
2023/10/07 10:54:53;;;;;;;1.02;1.00;;;;;;;22.26;52.10;99986.56;5114306;28;20130;-67
2023/10/07 10:57:24;;;;;;;1.50;1.30;;;;;;;22.48;51.29;99980.34;5114238;28;20512;-68
2023/10/07 10:59:54;;;;;;;1.10;0.90;;;;;;;22.58;50.87;99992.03;5114151;28;20039;-67
2023/10/07 11:02:23;;;;;;;1.17;1.02;;;;;;;22.60;50.31;99984.19;5114214;28;20051;-68
2023/10/07 11:04:54;;;;;;;1.20;0.90;;;;;;;22.52;49.94;99981.91;5114364;28;20501;-68
2023/10/07 11:07:24;;;;;;;0.75;0.65;;;;;;;22.49;50.06;99976.00;5114276;28;20096;-69
2023/10/07 11:09:53;;;;;;;0.68;0.68;;;;;;;22.66;50.08;99978.72;5114675;28;20481;-68
2023/10/07 11:12:27;;;;;;;1.10;1.00;;;;;;;22.76;49.84;99979.16;5114422;28;20489;-69
2023/10/07 11:15:06;;;;;;;0.60;0.60;;;;;;;22.72;49.68;99967.19;5114052;28;20073;-68
2023/10/07 11:17:41;;;;;;;0.65;0.65;;;;;;;22.65;49.83;99967.47;5114067;28;20047;-67
2023/10/07 11:20:12;;;;;;;0.60;0.60;;;;;;;22.81;49.50;99972.81;5113741;28;20040;-68
2023/10/07 11:22:43;;;;;;;2.28;0.80;;;;;;;22.93;49.30;99961.00;5113746;28;20071;-69
2023/10/07 11:25:14;;;;;;;0.75;0.75;;;;;;;23.07;49.41;99964.63;5114006;28;20036;-69
2023/10/07 11:27:48;;;;;;;1.20;1.10;;;;;;;23.06;49.07;99968.16;5113875;28;20047;-68
2023/10/07 11:30:18;;;;;;;2.95;1.10;;;;;;;23.02;48.71;99953.59;5113731;28;20105;-68
2023/10/07 11:32:47;;;;;;;1.65;0.70;;;;;;;23.07;48.96;99953.38;5113831;28;20042;-67
2023/10/07 11:35:19;;;;;;;0.65;0.65;;;;;;;23.06;48.65;99951.69;5114103;28;20062;-70
2023/10/07 11:37:57;;;;;;;0.80;0.80;;;;;;;23.36;48.98;99945.03;5114790;28;20427;-68
2023/10/07 11:40:27;;;;;;;0.47;0.47;;;;;;;23.44;48.47;99953.34;5114067;28;20055;-68
2023/10/07 11:42:58;;;;;;;0.57;0.57;;;;;;;23.55;48.15;99943.22;5114437;28;20085;-68
2023/10/07 11:45:27;;;;;;;0.60;0.60;;;;;;;23.58;48.00;99950.91;5118147;28;20071;-70
2023/10/07 11:47:57;;;;;;;0.65;0.65;;;;;;;23.64;47.82;99947.97;5117848;27;20092;-69
2023/10/07 11:50:27;;;;;;;0.52;0.52;;;;;;;23.51;47.67;99936.47;5118144;28;20508;-70
2023/10/07 11:52:56;;;;;;;1.40;1.23;;;;;;;23.51;47.85;99939.09;5118049;28;20162;-69
2023/10/07 11:55:25;;;;;;;;;;;;;;;23.72;47.65;99927.59;5117294;28;20114;-68
2023/10/07 11:57:54;;;;;;;0.60;0.60;;;;;;;23.76;47.63;99929.09;5118007;27;19972;-68
2023/10/07 12:00:27;;;;;;;1.25;1.08;;;;;;;23.87;47.30;99931.19;5117975;28;20425;-68
2023/10/07 12:02:58;;;;;;;3.58;1.20;;;;;;;23.91;47.23;99917.06;5117683;28;20044;-68
2023/10/07 12:05:28;;;;;;;0.60;0.60;;;;;;;23.81;47.25;99919.28;5117438;28;20039;-68
2023/10/07 12:07:59;;;;;;;0.60;0.60;;;;;;;23.74;46.83;99914.47;5118139;28;20047;-69
2023/10/07 12:10:28;;;;;;;0.55;0.55;;;;;;;23.78;46.74;99916.84;5117404;28;20100;-66
2023/10/07 12:12:58;;;;;;;1.08;0.98;;;;;;;23.79;46.73;99915.94;5117385;28;20497;-69
2023/10/07 12:15:29;;;;;;;0.80;0.80;;;;;;;23.99;46.92;99914.91;5117357;28;20055;-69
2023/10/07 12:18:00;;;;;;;1.23;0.73;;;;;;;24.06;46.45;99912.81;5117337;28;20093;-68
2023/10/07 12:20:31;;;;;;;0.60;0.60;;;;;;;23.99;46.44;99905.28;5117496;28;20047;-69
2023/10/07 12:23:00;;;;;;;0.60;0.60;;;;;;;23.97;46.33;99903.72;5117059;28;20408;-69
2023/10/07 12:25:32;;;;;;;0.80;0.80;;;;;;;23.92;46.25;99898.72;5117328;28;20039;-71
2023/10/07 12:28:05;;;;;;;0.50;0.50;;;;;;;23.91;46.39;99910.09;5117169;28;20047;-69
2023/10/07 12:30:37;;;;;;;0.80;0.80;;;;;;;23.98;45.92;99916.66;5117407;28;20042;-69
2023/10/07 12:33:08;;;;;;;0.98;0.82;;;;;;;24.11;46.22;99913.44;5117018;28;20082;-69
2023/10/07 12:35:52;;;;;;;0.95;0.93;;;;;;;24.36;45.80;99909.47;5117285;28;20408;-69